Friday, January 19, 2018, 7:36 AM GMT
Back to Local

CYFC, Fredericton, N. B.

Location: , , Canada Lat: 45.867
Local Time: 7:36 AM GMT ( 7:36 GMT) Lon: -66.533
Time Zone: GMT Elev: 55 ft

Show me the last for .
Show Coded

Time T Td Feel RH Dir Speed Gust Alt SLP Vis Weather Sky Remarks
2018-01-19 07:00 7 5 -5 92 200° 7 - 29.84 29.85 9 CLR None
2018-01-19 06:00 7 5 -3 92 190° 6 - 29.82 29.83 9 CLR None
2018-01-19 05:00 7 3 - 84 - Calm - 29.81 29.82 9 CLR None
2018-01-19 04:00 12 10 - 92 150° 2 - 29.83 29.84 9 CLR None
2018-01-19 03:00 12 12 - 100 Variable 2 - 29.83 29.84 9 CLR None
2018-01-19 02:00 14 12 8 92 290° 3 - 29.83 29.84 9 CLR None
2018-01-19 01:00 16 14 10 92 190° 3 - 29.83 29.84 9 OVC032 None
2018-01-19 00:00 16 14 7 92 250° 6 - 29.81 29.82 9 BKN034 None
2018-01-18 23:00 16 14 - 92 - Calm - 29.80 29.81 9 BKN036 None
2018-01-18 22:00 19 18 11 92 210° 6 - 29.79 29.80 9 CLR None
2018-01-18 21:00 21 18 15 85 200° 5 - 29.79 29.80 9 CLR None
2018-01-18 20:00 27 19 21 73 270° 5 - 29.79 29.80 9 BKN032 None
2018-01-18 19:24 27 19 18 73 300° 8 - 29.78 29.79 9 SCT024 None
2018-01-18 19:10 27 19 20 73 300° 6 - 29.78 29.78 9 BKN024 None
2018-01-18 19:00 27 19 20 73 280° 6 - 29.78 29.78 9 BKN026 None
2018-01-18 18:00 27 19 20 73 290° 6 - 29.79 29.80 9 BKN026 None
2018-01-18 17:54 27 19 18 73 290° 8 - 29.79 29.80 9 BKN026 None
2018-01-18 17:53 27 19 20 73 270° 6 - 29.79 29.80 9 BKN024 None
2018-01-18 17:37 25 19 16 79 270° 8 - 29.79 29.80 9 SCT022 None
2018-01-18 17:16 25 18 15 73 270° 9 - 29.80 29.80 9 BKN024 None
2018-01-18 17:14 25 18 15 73 260° 9 - 29.80 29.81 9 SCT024 None
2018-01-18 17:10 27 19 17 73 270° 9 - 29.80 29.81 9 BKN024 None
2018-01-18 17:00 27 19 19 73 280° 7 - 29.81 29.82 9 SCT024 None
2018-01-18 16:00 23 16 11 73 220° 13 - 29.84 29.85 9 FEW023 Pressure falling rapidly
2018-01-18 15:49 23 18 17 79 270° 5 - 29.86 29.86 9 SCT023 None
2018-01-18 15:00 23 18 17 79 290° 5 - 29.87 29.88 9 OVC019 None
2018-01-18 14:36 23 18 9 79 290° 10 17 29.88 29.88 9 OVC019 None
2018-01-18 14:19 23 19 10 85 300° 15 - 29.87 29.88 9 -SN BKN017 None
2018-01-18 14:02 23 21 16 92 270° 6 - 29.88 29.88 9 BKN017 None
2018-01-18 14:00 23 21 16 92 260° 6 - 29.88 29.88 9 SCT017 None
2018-01-18 13:00 21 21 16 100 210° 3 - 29.87 29.88 9 SCT017 OVC041 None
2018-01-18 12:24 21 21 15 100 180° 5 - 29.87 29.88 9 SCT017 BKN031 OVC041 None
2018-01-18 12:20 21 21 14 100 180° 6 - 29.87 29.88 9 BKN019 OVC031 None
2018-01-18 12:12 23 21 17 92 180° 5 - 29.87 29.88 9 SCT019 OVC031 None
2018-01-18 12:00 23 21 16 92 170° 6 - 29.87 29.88 9 OVC019 None
2018-01-18 11:00 21 21 - 100 200° 2 - 29.87 29.88 9 OVC015 None
2018-01-18 10:00 21 21 15 100 280° 5 - 29.88 29.88 9 BKN015 OVC020 None
2018-01-18 09:00 21 21 - 100 180° 2 - 29.89 29.90 9 OVC020 Pressure falling rapidly
2018-01-18 08:00 21 19 - 92 Variable 2 - 29.91 29.92 9 OVC017 None
2018-01-18 07:37 21 19 - 92 260° 2 - 29.92 29.93 9 OVC017 None

Support USWX by starting your Amazon purchase here.